Spragueville, IA

7:09 AM CDT on July 26, 2014 (GMT -0500)
Clinton Municipal (KCWI) Elev 709 ft | 41.83 °N, 90.33 °W | Change Station

Current weather conditions updated 14 minutes ago

Overcast
Overcast
66 °F
Feels Like 66 °F
N
7
Wind Variable Wind from ESE

Today is forecast to be Much Warmer than yesterday.

Today
High -- | Low -- °F
--% Chance of Precip.
Yesterday
High -- | Low -- °F
Precip. -- in
5:49 AM 8:27 PM
Waning Crescent, 0% visible
Pressure 29.85 in
Visibility 10.0 miles
Clouds Overcast 2400 ft
Dew Point 63 °F
Humidity 88%
Rainfall 0.00 in
Snow Depth Not available.
UV 0 out of 12
Pollen 6.50 out of 12
Air Quality Not available.
Flu Activity Not available.
METAR KCWI 261155Z AUTO 11006KT 10SM OVC024 19/17 A2985 RMK AO1 70018 10190 20180 54000

More Conditions Fewer Conditions

Pressure 29.85 in
Visibility 10.0 miles
Clouds Overcast 2400 ft
Dew Point 63 °F
Humidity 88%
Rainfall 0.00 in
Snow Depth Not available.
UV 0 out of 12
Pollen 6.50 out of 12
Air Quality Not available.
Flu Activity Not available.
METAR KCWI 261155Z AUTO 11006KT 10SM OVC024 19/17 A2985 RMK AO1 70018 10190 20180 54000

More Conditions Fewer Conditions

10-Day Weather Forecast

Almanac

Astronomy

Jul. 26, 2014 Rise Set
Actual Time 5:49 AM CDT 8:27 PM CDT
Civil Twilight 5:17 AM CDT 8:59 PM CDT
Nautical Twilight 4:36 AM CDT 9:39 PM CDT
Astronomical Twilight 3:50 AM CDT 10:24 PM CDT
Moon 5:43 AM CDT 8:00 PM CDT
Length of Visible Light 15h 42m
Length of Day
14h 37m
Tomorrow will be 1m 58s shorter.
Waning Crescent, 0% of the Moon is Illuminated
Today
Waning Crescent
Jul 26
New
Aug 3
First Quarter
Aug 10
Full
Aug 17
Last Quarter

Today's Extremes

State Highs State Lows

Community

WunderPhotos

Upload Photos

1,737,551 photos uploaded!

Nearby

Snow Depth

Station Depth Elevation
No new snow has been reported.

Earthquake Activity

City Distance Mag. Time & Date
No recent earthquake activity has been reported nearby.
Minimum magnitude displayed is 2.5.

Coastal Water Temperatures

Place Temperature
No Stations Reporting

Nearby Weather Stations

Station Location Temp. Dew Point Humidity Wind Precip. Elev Updated Type
Mt. Murrell, Charlotte, IA 69.6 °F 64 °F 81% ESE  at  2.0 mph 0.00 in / hr 797 ft 7:09 AM CDT Rapid Fire
Nightowl News ( MAQ Middle School), Maquoketa, IA 63.9 °F 57 °F 78% East  at  0.0 mph - / hr 755 ft 7:04 AM CDT Normal
Mayer Farm @ Eagle Point, Clinton, IA 66.8 °F 63 °F 88% SE  at  2.0 mph 0.00 in / hr 745 ft 6:57 AM CDT Normal
MesoWest LOWMR1 , Camanche, IA 70 °F - - North  at  - 0.00 in / hr 638 ft 4:40 AM CDT MADIS
IGRAM, Elizabeth, IL 68.9 °F 65 °F 88% North  at  0.0 mph 0.00 in / hr 885 ft 7:00 AM CDT Normal
Clinton, IA 67.2 °F 63 °F 86% ESE  at  1.0 mph 0.00 in / hr 592 ft 7:01 AM CDT Normal
Harbor Oak, Galena, IL 68.1 °F 65 °F 91% SE  at  0.0 mph 0.00 in / hr 795 ft 7:09 AM CDT Rapid Fire
Quality Hill, Galena, IL 65.6 °F 63 °F 91% SE  at  0.0 mph - / hr 761 ft 7:01 AM CDT Normal

Show More Stations Show Fewer Stations